Andrews, TX

5:44 AM CST on December 13, 2019 (GMT -0600)
Andrews

Weather History for KE11 - October, 2019

Change the Weather History Date:

Tuesday, October 8, 2019

  Actual Average (WUND) Record (WUND)
Temperature  
Mean Temperature 66 °F -  
Max Temperature 84 °F - - (-1)
Min Temperature 49 °F - - (-1)
Cooling Degree Days 2    
Growing Degree Days 16 (Base 50)    
Moisture  
Dew Point 45 °F    
Average Humidity 47    
Maximum Humidity 65    
Minimum Humidity 31    
Precipitation  
Precipitation 0.00 in - - ()
Sea Level Pressure  
Sea Level Pressure 30.07 in    
Wind  
Wind Speed 7 mph ()    
Max Wind Speed 16 mph    
Max Gust Speed 22 mph    
Visibility 10.0 miles    
Events      
Averages and records for this station are not official NWS values.
T = Trace of Precipitation, MM = Missing Value Source: Averaged Metar Reports

Daily Weather History Graph

Daily Weather History Graph

Search for Another Location

Airport or City:

Astronomy

Oct. 08, 2019 Rise Set
Actual Time 7:48 AM CDT 7:26 PM CDT
Civil Twilight 7:24 AM CDT 7:50 PM CDT
Nautical Twilight 6:55 AM CDT 8:19 PM CDT
Astronomical Twilight 6:27 AM CDT 8:47 PM CDT
Moon 5:05 PM CDT (10/8) 3:02 AM CDT (10/8)
Length of Visible Light 12h 26m
Length of Day
11h 37m
Waxing Gibbous, 78% of the Moon is Illuminated
Oct 8
Waxing Gibbous
Oct 13
Full
Oct 21
Last Quarter
Oct 27
New
Nov 4
First Quarter

Hourly Weather History & Observations

Time (CDT) Temp. Dew Point Humidity Pressure Visibility Wind Dir Wind Speed Gust Speed Precip Events Conditions
12:15 AM 54.1 °F 36.7 °F 52% 30.21 in 10.0 mi SE 5.8 mph - N/A   Clear
12:30 AM 54.5 °F 36.0 °F 50% 30.21 in 10.0 mi SE 4.6 mph - N/A   Clear
12:55 AM 53.1 °F 36.7 °F 54% 30.20 in 10.0 mi SE 4.6 mph - N/A   Clear
1:15 AM 53.6 °F 36.0 °F 51% 30.19 in 10.0 mi SE 5.8 mph - N/A   Clear
1:35 AM 52.7 °F 36.3 °F 54% 30.19 in 10.0 mi SE 4.6 mph - N/A   Clear
1:55 AM 52.3 °F 36.5 °F 55% 30.18 in 10.0 mi SE 4.6 mph - N/A   Clear
2:15 AM 52.2 °F 36.3 °F 55% 30.18 in 10.0 mi SE 3.5 mph - N/A   Clear
2:35 AM 51.8 °F 36.5 °F 56% 30.18 in 10.0 mi SSE 3.5 mph - N/A   Clear
2:55 AM 51.4 °F 36.5 °F 57% 30.18 in 10.0 mi SSE 3.5 mph - N/A   Clear
3:15 AM 51.4 °F 35.8 °F 55% 30.18 in 10.0 mi SSE 3.5 mph - N/A   Clear
3:35 AM 50.9 °F 37.6 °F 60% 30.17 in 10.0 mi Calm Calm - N/A   Clear
3:55 AM 50.7 °F 38.1 °F 62% 30.16 in 10.0 mi Calm Calm - N/A   Clear
4:15 AM 51.1 °F 36.5 °F 57% 30.16 in 10.0 mi Calm Calm - N/A   Clear
4:35 AM 50.9 °F 37.4 °F 60% 30.15 in 10.0 mi Calm Calm - N/A   Clear
4:55 AM 51.3 °F 36.7 °F 57% 30.15 in 10.0 mi Calm Calm - N/A   Clear
5:15 AM 51.1 °F 36.1 °F 57% 30.15 in 10.0 mi SSE 3.5 mph - N/A   Clear
5:35 AM 50.9 °F 36.7 °F 58% 30.14 in 10.0 mi SSE 3.5 mph - N/A   Clear
5:55 AM 50.9 °F 36.1 °F 57% 30.14 in 10.0 mi South 4.6 mph - N/A   Clear
6:15 AM 50.5 °F 36.5 °F 59% 30.14 in 10.0 mi SSE 4.6 mph - N/A   Clear
6:35 AM 50.2 °F 36.9 °F 60% 30.14 in 10.0 mi South 4.6 mph - N/A   Clear
6:55 AM 50.0 °F 37.2 °F 62% 30.14 in 10.0 mi SSE 5.8 mph - N/A   Clear
7:15 AM 49.5 °F 37.9 °F 65% 30.13 in 10.0 mi SSE 5.8 mph - N/A   Clear
7:35 AM 50.0 °F 37.6 °F 62% 30.13 in 10.0 mi SSE 4.6 mph - N/A   Clear
7:55 AM 50.2 °F 37.4 °F 62% 30.12 in 10.0 mi SSE 5.8 mph - N/A   Clear
8:15 AM 51.8 °F 37.0 °F 57% 30.12 in 10.0 mi SSE 8.1 mph - N/A   Clear
8:35 AM 54.1 °F 37.6 °F 54% 30.13 in 10.0 mi SSE 8.1 mph - N/A   Clear
8:55 AM 57.4 °F 37.4 °F 47% 30.13 in 10.0 mi SSE 12.7 mph 18.4 mph N/A   Clear
9:15 AM 59.9 °F 38.3 °F 45% 30.13 in 10.0 mi SSE 15.0 mph 19.6 mph N/A   Clear
9:35 AM 62.2 °F 39.7 °F 44% 30.13 in 10.0 mi SSE 13.8 mph - N/A   Clear
9:55 AM 63.3 °F 41.0 °F 44% 30.14 in 10.0 mi SSE 12.7 mph 18.4 mph N/A   Clear
10:15 AM 65.7 °F 42.8 °F 43% 30.14 in 10.0 mi SSE 16.1 mph 20.7 mph N/A   Clear
10:35 AM 68.5 °F 45.5 °F 44% 30.14 in 10.0 mi South 13.8 mph 21.9 mph N/A   Clear
10:55 AM 70.0 °F 45.9 °F 42% 30.13 in 10.0 mi South 16.1 mph 21.9 mph N/A   Clear
11:15 AM 70.9 °F 45.7 °F 40% 30.13 in 10.0 mi South 15.0 mph 18.4 mph N/A   Clear
11:35 AM 72.0 °F 46.4 °F 40% 30.12 in 10.0 mi South 13.8 mph 19.6 mph N/A   Clear
11:55 AM 72.7 °F 46.9 °F 40% 30.12 in 10.0 mi South 12.7 mph 20.7 mph N/A   Clear
12:15 PM 74.3 °F 48.0 °F 39% 30.10 in 10.0 mi South 9.2 mph 18.4 mph N/A   Clear
12:35 PM 74.8 °F 48.6 °F 39% 30.10 in 10.0 mi SSW 11.5 mph 21.9 mph N/A   Clear
12:55 PM 77.0 °F 49.8 °F 38% 30.09 in 10.0 mi South 9.2 mph 16.1 mph N/A   Clear
1:15 PM 77.7 °F 50.5 °F 38% 30.07 in 10.0 mi South 9.2 mph - N/A   Clear
1:35 PM 79.2 °F 51.6 °F 38% 30.06 in 10.0 mi SSW 11.5 mph 17.3 mph N/A   Clear
1:55 PM 79.9 °F 52.0 °F 38% 30.05 in 10.0 mi South 11.5 mph - N/A   Clear
2:15 PM 80.8 °F 52.2 °F 37% 30.03 in 10.0 mi South 11.5 mph 19.6 mph N/A   Clear
2:35 PM 81.7 °F 52.5 °F 36% 30.02 in 10.0 mi South 12.7 mph 18.4 mph N/A   Clear
2:55 PM 82.0 °F 52.3 °F 36% 30.01 in 10.0 mi South 10.4 mph - N/A   Clear
3:15 PM 82.4 °F 51.3 °F 34% 30.00 in 10.0 mi SSW 11.5 mph 21.9 mph N/A   Clear
3:35 PM 83.1 °F 51.1 °F 33% 29.99 in 10.0 mi South 13.8 mph 20.7 mph N/A   Clear
3:55 PM 84.2 °F 51.4 °F 32% 29.98 in 10.0 mi South 15.0 mph 18.4 mph N/A   Clear
4:15 PM 84.2 °F 50.5 °F 31% 29.97 in 10.0 mi South 15.0 mph 19.6 mph N/A   Clear
4:35 PM 84.2 °F 50.9 °F 32% 29.97 in 10.0 mi South 9.2 mph 21.9 mph N/A   Clear
4:55 PM 84.2 °F 50.2 °F 31% 29.96 in 10.0 mi South 12.7 mph 21.9 mph N/A   Clear
5:15 PM 82.2 °F 49.5 °F 32% 29.96 in 10.0 mi South 12.7 mph 21.9 mph N/A   Clear
5:35 PM 83.5 °F 50.4 °F 32% 29.95 in 10.0 mi South 13.8 mph 17.3 mph N/A   Scattered Clouds
5:55 PM 82.4 °F 50.4 °F 33% 29.94 in 10.0 mi South 12.7 mph 20.7 mph N/A   Scattered Clouds
6:15 PM 81.7 °F 50.7 °F 34% 29.93 in 10.0 mi South 10.4 mph - N/A   Clear
6:35 PM 81.3 °F 50.9 °F 35% 29.94 in 10.0 mi South 12.7 mph 16.1 mph N/A   Clear
6:55 PM 79.7 °F 51.4 °F 37% 29.94 in 10.0 mi SSE 8.1 mph - N/A   Clear
7:15 PM 77.5 °F 51.8 °F 41% 29.94 in 10.0 mi SSE 6.9 mph - N/A   Scattered Clouds
7:35 PM 76.1 °F 51.4 °F 42% 29.94 in 10.0 mi SE 6.9 mph - N/A   Scattered Clouds
7:55 PM 75.0 °F 51.6 °F 44% 29.94 in 10.0 mi SSE 5.8 mph - N/A   Clear
8:15 PM 73.2 °F 51.8 °F 47% 29.94 in 10.0 mi SSE 6.9 mph - N/A   Clear
8:35 PM 73.4 °F 51.8 °F 47% 29.94 in 10.0 mi SSE 9.2 mph - N/A   Clear
8:55 PM 73.4 °F 52.0 °F 47% 29.94 in 10.0 mi SSE 9.2 mph - N/A   Clear
9:15 PM 73.0 °F 52.3 °F 48% 29.94 in 10.0 mi SSE 10.4 mph - N/A   Clear
9:35 PM 72.7 °F 53.1 °F 50% 29.94 in 10.0 mi SSE 11.5 mph 16.1 mph N/A   Clear
9:55 PM 72.7 °F 53.6 °F 51% 29.95 in 10.0 mi SSE 12.7 mph - N/A   Clear
10:15 PM 72.5 °F 53.8 °F 52% 29.95 in 10.0 mi SSE 11.5 mph - N/A   Clear
10:35 PM 71.6 °F 54.0 °F 54% 29.96 in 10.0 mi SSE 12.7 mph - N/A   Clear
10:55 PM 71.6 °F 54.5 °F 55% 29.97 in 10.0 mi South 12.7 mph 19.6 mph N/A   Clear
11:15 PM 71.4 °F 54.5 °F 55% 29.97 in 10.0 mi South 12.7 mph 17.3 mph N/A   Clear
11:35 PM 70.7 °F 54.5 °F 56% 29.96 in 10.0 mi South 10.4 mph 17.3 mph N/A   Clear
11:55 PM 71.1 °F 54.5 °F 56% 29.98 in 10.0 mi SSW 13.8 mph - N/A   Scattered Clouds